GFA111 OBBI-OEDF
Flight info
| Callsign | GFA111 |
|---|---|
| Flight time | 0h 19m |
| Altitude | 14000 |
| Route | BHR B457 NARMI |
| Aircraft | A320/M-SDE3FGHIRWY/LB1 |
Departure
| Time | 2026-05-06 01:52 |
|---|---|
| Airport | Bahrain International Airport (OBBI) |
Arrival
| Time | 2026-05-06 02:12 |
|---|---|
| Airport | King Fahd International Airport (OEDF) |
| Time | Latitude | Longitude | Altitude | Speed | Heading |
|---|---|---|---|---|---|
| 2026-05-06 01:43 | 26.26847 | 50.63175 | 21 ft | 4 kts | 186° |
| 2026-05-06 01:43 | 26.26869 | 50.63171 | 24 ft | 3 kts | 127° |
| 2026-05-06 01:43 | 26.26871 | 50.63169 | 23 ft | 0 kts | 123° |
| 2026-05-06 01:46 | 26.26865 | 50.63179 | 24 ft | 3 kts | 123° |
| 2026-05-06 01:46 | 26.26844 | 50.63214 | 21 ft | 8 kts | 123° |
| 2026-05-06 01:46 | 26.26805 | 50.63283 | 23 ft | 11 kts | 122° |
| 2026-05-06 01:47 | 26.26793 | 50.63354 | 21 ft | 9 kts | 59° |
| 2026-05-06 01:47 | 26.26837 | 50.63419 | 19 ft | 13 kts | 86° |
| 2026-05-06 01:47 | 26.26796 | 50.63504 | 19 ft | 12 kts | 123° |
| 2026-05-06 01:47 | 26.26755 | 50.63575 | 20 ft | 10 kts | 123° |
| 2026-05-06 01:48 | 26.26720 | 50.63636 | 21 ft | 8 kts | 122° |
| 2026-05-06 01:48 | 26.26689 | 50.63689 | 21 ft | 8 kts | 122° |
| 2026-05-06 01:48 | 26.26661 | 50.63737 | 22 ft | 8 kts | 122° |
| 2026-05-06 01:48 | 26.26621 | 50.63808 | 23 ft | 13 kts | 122° |
| 2026-05-06 01:49 | 26.26563 | 50.63908 | 22 ft | 18 kts | 122° |
| 2026-05-06 01:49 | 26.26486 | 50.64043 | 22 ft | 24 kts | 123° |
| 2026-05-06 01:49 | 26.26386 | 50.64216 | 20 ft | 29 kts | 122° |
| 2026-05-06 01:49 | 26.26266 | 50.64425 | 18 ft | 34 kts | 123° |
| 2026-05-06 01:50 | 26.26135 | 50.64656 | 19 ft | 36 kts | 123° |
| 2026-05-06 01:50 | 26.26074 | 50.64757 | 22 ft | 12 kts | 123° |
| 2026-05-06 01:50 | 26.26033 | 50.64828 | 21 ft | 10 kts | 122° |
| 2026-05-06 01:50 | 26.26018 | 50.64913 | 21 ft | 13 kts | 81° |
| 2026-05-06 01:51 | 26.26086 | 50.64992 | 19 ft | 9 kts | 32° |
| 2026-05-06 01:51 | 26.26138 | 50.65003 | 19 ft | 8 kts | 313° |
| 2026-05-06 01:51 | 26.26177 | 50.64933 | 19 ft | 13 kts | 302° |
| 2026-05-06 01:51 | 26.26263 | 50.64785 | 16 ft | 44 kts | 303° |
| 2026-05-06 01:52 | 26.26564 | 50.64262 | 15 ft | 114 kts | 302° |
| 2026-05-06 01:52 | 26.27095 | 50.63342 | 31 ft | 165 kts | 303° |
| 2026-05-06 01:52 | 26.27717 | 50.62302 | 779 ft | 159 kts | 305° |
| 2026-05-06 01:52 | 26.28262 | 50.61210 | 1383 ft | 168 kts | 285° |
| 2026-05-06 01:53 | 26.28401 | 50.59850 | 1699 ft | 187 kts | 271° |
| 2026-05-06 01:53 | 26.28473 | 50.58321 | 1954 ft | 209 kts | 271° |
| 2026-05-06 01:53 | 26.28568 | 50.56603 | 2230 ft | 234 kts | 272° |
| 2026-05-06 01:53 | 26.28679 | 50.54705 | 2698 ft | 249 kts | 271° |
| 2026-05-06 01:54 | 26.28798 | 50.52867 | 3859 ft | 231 kts | 273° |
| 2026-05-06 01:54 | 26.28913 | 50.51102 | 4740 ft | 230 kts | 272° |
| 2026-05-06 01:54 | 26.29028 | 50.49235 | 5082 ft | 253 kts | 271° |
| 2026-05-06 01:54 | 26.29153 | 50.47203 | 5535 ft | 271 kts | 272° |
| 2026-05-06 01:55 | 26.29285 | 50.45098 | 6338 ft | 273 kts | 272° |
| 2026-05-06 01:55 | 26.29420 | 50.42972 | 7094 ft | 278 kts | 273° |
| 2026-05-06 01:55 | 26.29558 | 50.40811 | 7924 ft | 279 kts | 272° |
| 2026-05-06 01:55 | 26.29692 | 50.38663 | 8739 ft | 283 kts | 272° |
| 2026-05-06 01:56 | 26.29828 | 50.36460 | 9541 ft | 288 kts | 273° |
| 2026-05-06 01:56 | 26.29971 | 50.34208 | 10208 ft | 298 kts | 273° |
| 2026-05-06 01:56 | 26.30128 | 50.31813 | 10461 ft | 321 kts | 274° |
| 2026-05-06 01:56 | 26.30341 | 50.29236 | 10684 ft | 344 kts | 275° |
| 2026-05-06 01:57 | 26.30595 | 50.26549 | 11270 ft | 351 kts | 275° |
| 2026-05-06 01:57 | 26.30863 | 50.23823 | 11916 ft | 357 kts | 275° |
| 2026-05-06 01:57 | 26.31132 | 50.21053 | 12622 ft | 361 kts | 275° |
| 2026-05-06 01:57 | 26.31400 | 50.18250 | 13340 ft | 365 kts | 275° |
| 2026-05-06 01:58 | 26.31664 | 50.15421 | 13710 ft | 367 kts | 275° |
| 2026-05-06 01:58 | 26.31925 | 50.12596 | 13776 ft | 379 kts | 275° |
| 2026-05-06 01:58 | 26.32201 | 50.09598 | 13784 ft | 394 kts | 275° |
| 2026-05-06 01:58 | 26.32482 | 50.06541 | 13783 ft | 398 kts | 275° |
| 2026-05-06 01:59 | 26.32761 | 50.03487 | 13783 ft | 399 kts | 275° |
| 2026-05-06 01:59 | 26.33039 | 50.00430 | 13781 ft | 400 kts | 275° |
| 2026-05-06 01:59 | 26.33320 | 49.97344 | 13781 ft | 400 kts | 275° |
| 2026-05-06 01:59 | 26.33599 | 49.94273 | 13778 ft | 397 kts | 275° |
| 2026-05-06 02:00 | 26.33876 | 49.91208 | 13778 ft | 397 kts | 275° |
| 2026-05-06 02:00 | 26.34150 | 49.88152 | 13782 ft | 396 kts | 275° |
| 2026-05-06 02:00 | 26.34424 | 49.85094 | 13782 ft | 396 kts | 275° |
| 2026-05-06 02:00 | 26.34696 | 49.82040 | 13783 ft | 396 kts | 275° |
| 2026-05-06 02:01 | 26.34966 | 49.78977 | 13789 ft | 396 kts | 275° |
| 2026-05-06 02:01 | 26.35231 | 49.75983 | 13336 ft | 379 kts | 275° |
| 2026-05-06 02:01 | 26.35484 | 49.73154 | 12676 ft | 363 kts | 274° |
| 2026-05-06 02:01 | 26.35729 | 49.70416 | 12092 ft | 348 kts | 274° |
| 2026-05-06 02:02 | 26.35967 | 49.67760 | 11406 ft | 344 kts | 274° |
| 2026-05-06 02:02 | 26.36182 | 49.65090 | 10833 ft | 344 kts | 270° |
| 2026-05-06 02:02 | 26.35855 | 49.62554 | 10701 ft | 318 kts | 250° |
| 2026-05-06 02:02 | 26.34848 | 49.60448 | 10481 ft | 296 kts | 231° |
| 2026-05-06 02:03 | 26.33387 | 49.58954 | 10144 ft | 287 kts | 212° |
| 2026-05-06 02:03 | 26.31567 | 49.58057 | 9930 ft | 287 kts | 194° |
| 2026-05-06 02:03 | 26.29571 | 49.57846 | 9818 ft | 291 kts | 176° |
| 2026-05-06 02:03 | 26.27577 | 49.58240 | 9703 ft | 292 kts | 169° |
| 2026-05-06 02:04 | 26.25596 | 49.58711 | 9385 ft | 295 kts | 167° |
| 2026-05-06 02:04 | 26.23782 | 49.59753 | 8877 ft | 300 kts | 141° |
| 2026-05-06 02:04 | 26.22575 | 49.61646 | 8097 ft | 306 kts | 111° |
| 2026-05-06 02:04 | 26.22377 | 49.64009 | 7321 ft | 313 kts | 82° |
| 2026-05-06 02:05 | 26.22857 | 49.66343 | 6915 ft | 302 kts | 78° |
| 2026-05-06 02:05 | 26.23337 | 49.68533 | 6637 ft | 287 kts | 78° |
| 2026-05-06 02:05 | 26.23793 | 49.70643 | 6356 ft | 274 kts | 79° |
| 2026-05-06 02:05 | 26.24223 | 49.72658 | 6075 ft | 262 kts | 79° |
| 2026-05-06 02:06 | 26.24638 | 49.74594 | 5802 ft | 252 kts | 78° |
| 2026-05-06 02:06 | 26.25088 | 49.76455 | 5512 ft | 245 kts | 77° |
| 2026-05-06 02:06 | 26.25553 | 49.78263 | 5114 ft | 243 kts | 76° |
| 2026-05-06 02:06 | 26.26027 | 49.80076 | 4625 ft | 245 kts | 76° |
| 2026-05-06 02:07 | 26.26501 | 49.81884 | 4060 ft | 249 kts | 76° |
| 2026-05-06 02:07 | 26.26983 | 49.83723 | 3729 ft | 241 kts | 77° |
| 2026-05-06 02:07 | 26.27572 | 49.85432 | 3448 ft | 236 kts | 57° |
| 2026-05-06 02:07 | 26.28877 | 49.86482 | 3140 ft | 234 kts | 14° |
| 2026-05-06 02:08 | 26.30446 | 49.86346 | 2903 ft | 227 kts | 335° |
| 2026-05-06 02:08 | 26.31862 | 49.85628 | 2632 ft | 222 kts | 340° |
| 2026-05-06 02:08 | 26.33317 | 49.85149 | 2383 ft | 211 kts | 343° |
| 2026-05-06 02:08 | 26.34668 | 49.84744 | 2112 ft | 193 kts | 343° |
| 2026-05-06 02:09 | 26.35908 | 49.84366 | 1877 ft | 176 kts | 343° |
| 2026-05-06 02:09 | 26.37041 | 49.84018 | 1666 ft | 164 kts | 343° |
| 2026-05-06 02:09 | 26.38091 | 49.83695 | 1474 ft | 150 kts | 344° |
| 2026-05-06 02:09 | 26.39071 | 49.83392 | 1276 ft | 144 kts | 344° |
| 2026-05-06 02:10 | 26.40027 | 49.83098 | 1098 ft | 140 kts | 345° |
| 2026-05-06 02:10 | 26.40959 | 49.82809 | 911 ft | 139 kts | 345° |
| 2026-05-06 02:10 | 26.41869 | 49.82529 | 788 ft | 136 kts | 346° |
| 2026-05-06 02:10 | 26.42793 | 49.82245 | 587 ft | 135 kts | 348° |
| 2026-05-06 02:11 | 26.43689 | 49.81968 | 425 ft | 133 kts | 349° |
| 2026-05-06 02:11 | 26.44566 | 49.81699 | 282 ft | 132 kts | 349° |
| 2026-05-06 02:11 | 26.45454 | 49.81423 | 119 ft | 133 kts | 348° |
| 2026-05-06 02:11 | 26.46277 | 49.81171 | 87 ft | 105 kts | 344° |
| 2026-05-06 02:12 | 26.46814 | 49.81001 | 91 ft | 55 kts | 345° |
| 2026-05-06 02:12 | 26.47068 | 49.80924 | 86 ft | 32 kts | 345° |
| 2026-05-06 02:12 | 26.47283 | 49.80857 | 86 ft | 32 kts | 343° |
| 2026-05-06 02:12 | 26.47494 | 49.80790 | 87 ft | 31 kts | 340° |
| 2026-05-06 02:13 | 26.47672 | 49.80655 | 89 ft | 32 kts | 316° |
| 2026-05-06 02:13 | 26.47798 | 49.80512 | 85 ft | 14 kts | 314° |
| 2026-05-06 02:13 | 26.47844 | 49.80426 | 85 ft | 12 kts | 267° |
| 2026-05-06 02:13 | 26.47828 | 49.80336 | 87 ft | 11 kts | 254° |
| 2026-05-06 02:14 | 26.47812 | 49.80270 | 87 ft | 11 kts | 255° |
| 2026-05-06 02:14 | 26.47793 | 49.80193 | 85 ft | 10 kts | 255° |
| 2026-05-06 02:14 | 26.47775 | 49.80120 | 89 ft | 9 kts | 255° |
| 2026-05-06 02:14 | 26.47758 | 49.80050 | 90 ft | 10 kts | 255° |
| 2026-05-06 02:15 | 26.47739 | 49.79970 | 91 ft | 11 kts | 255° |
| 2026-05-06 02:15 | 26.47717 | 49.79882 | 95 ft | 13 kts | 255° |
| 2026-05-06 02:15 | 26.47690 | 49.79774 | 94 ft | 18 kts | 254° |
| 2026-05-06 02:15 | 26.47651 | 49.79619 | 94 ft | 23 kts | 254° |
| 2026-05-06 02:16 | 26.47601 | 49.79422 | 95 ft | 28 kts | 254° |
| 2026-05-06 02:16 | 26.47555 | 49.79240 | 88 ft | 12 kts | 254° |
| 2026-05-06 02:16 | 26.47531 | 49.79147 | 89 ft | 12 kts | 246° |
| 2026-05-06 02:16 | 26.47464 | 49.79119 | 87 ft | 11 kts | 164° |
| 2026-05-06 02:17 | 26.47394 | 49.79142 | 87 ft | 10 kts | 164° |
| 2026-05-06 02:17 | 26.47327 | 49.79163 | 87 ft | 9 kts | 162° |
| 2026-05-06 02:17 | 26.47271 | 49.79194 | 86 ft | 9 kts | 153° |
| 2026-05-06 02:17 | 26.47221 | 49.79222 | 86 ft | 8 kts | 155° |
| 2026-05-06 02:18 | 26.47163 | 49.79252 | 87 ft | 11 kts | 155° |
| 2026-05-06 02:18 | 26.47099 | 49.79287 | 87 ft | 8 kts | 153° |
| 2026-05-06 02:18 | 26.47063 | 49.79315 | 86 ft | 5 kts | 116° |
| 2026-05-06 02:18 | 26.47070 | 49.79348 | 85 ft | 5 kts | 63° |
| 2026-05-06 02:19 | 26.47085 | 49.79380 | 89 ft | 3 kts | 62° |
| 2026-05-06 02:19 | 26.47088 | 49.79386 | 86 ft | 0 kts | 62° |